sensor_id;sensor_type;location;lat;lon;timestamp;P1;durP1;ratioP1;P2;durP2;ratioP2
4021;SDS011;2025;48.260;16.432;2023-05-10T00:02:00;4.07;;;0.65;;
4021;SDS011;2025;48.260;16.432;2023-05-10T00:04:27;3.35;;;0.93;;
4021;SDS011;2025;48.260;16.432;2023-05-10T00:06:54;3.78;;;0.80;;
4021;SDS011;2025;48.260;16.432;2023-05-10T00:09:21;4.15;;;0.63;;
4021;SDS011;2025;48.260;16.432;2023-05-10T00:11:48;4.18;;;0.68;;
4021;SDS011;2025;48.260;16.432;2023-05-10T00:14:16;6.57;;;1.85;;
4021;SDS011;2025;48.260;16.432;2023-05-10T00:16:43;4.15;;;1.42;;
4021;SDS011;2025;48.260;16.432;2023-05-10T00:19:10;3.03;;;0.60;;
4021;SDS011;2025;48.260;16.432;2023-05-10T00:21:37;4.50;;;1.02;;
4021;SDS011;2025;48.260;16.432;2023-05-10T00:24:04;3.17;;;0.60;;
4021;SDS011;2025;48.260;16.432;2023-05-10T00:26:32;3.63;;;0.75;;
4021;SDS011;2025;48.260;16.432;2023-05-10T00:28:59;5.15;;;0.95;;
4021;SDS011;2025;48.260;16.432;2023-05-10T00:31:27;5.53;;;1.02;;
4021;SDS011;2025;48.260;16.432;2023-05-10T00:33:54;3.70;;;0.98;;
4021;SDS011;2025;48.260;16.432;2023-05-10T00:36:22;3.80;;;0.75;;
4021;SDS011;2025;48.260;16.432;2023-05-10T00:38:49;4.40;;;0.77;;
4021;SDS011;2025;48.260;16.432;2023-05-10T00:41:15;5.05;;;0.70;;
4021;SDS011;2025;48.260;16.432;2023-05-10T00:43:42;4.35;;;0.73;;
4021;SDS011;2025;48.260;16.432;2023-05-10T00:46:09;4.95;;;0.80;;
4021;SDS011;2025;48.260;16.432;2023-05-10T00:48:38;4.15;;;0.85;;
4021;SDS011;2025;48.260;16.432;2023-05-10T00:51:05;3.97;;;1.02;;
4021;SDS011;2025;48.260;16.432;2023-05-10T00:53:32;4.25;;;1.33;;
4021;SDS011;2025;48.260;16.432;2023-05-10T00:56:01;4.53;;;0.98;;
4021;SDS011;2025;48.260;16.432;2023-05-10T00:58:28;3.63;;;0.70;;
4021;SDS011;2025;48.260;16.432;2023-05-10T01:00:56;3.78;;;0.80;;
4021;SDS011;2025;48.260;16.432;2023-05-10T01:03:24;4.07;;;1.15;;
4021;SDS011;2025;48.260;16.432;2023-05-10T01:05:53;5.00;;;0.90;;
4021;SDS011;2025;48.260;16.432;2023-05-10T01:08:20;4.90;;;1.20;;
4021;SDS011;2025;48.260;16.432;2023-05-10T01:10:47;4.50;;;1.02;;
4021;SDS011;2025;48.260;16.432;2023-05-10T01:13:16;3.90;;;0.63;;
4021;SDS011;2025;48.260;16.432;2023-05-10T01:15:53;4.40;;;0.98;;
4021;SDS011;2025;48.260;16.432;2023-05-10T01:18:21;4.50;;;1.00;;
4021;SDS011;2025;48.260;16.432;2023-05-10T01:20:48;4.38;;;0.90;;
4021;SDS011;2025;48.260;16.432;2023-05-10T01:23:30;4.55;;;0.85;;
4021;SDS011;2025;48.260;16.432;2023-05-10T01:26:23;4.20;;;1.10;;
4021;SDS011;2025;48.260;16.432;2023-05-10T01:29:14;3.88;;;0.60;;
4021;SDS011;2025;48.260;16.432;2023-05-10T01:32:01;5.05;;;1.20;;
4021;SDS011;2025;48.260;16.432;2023-05-10T01:34:39;4.93;;;1.00;;
4021;SDS011;2025;48.260;16.432;2023-05-10T01:37:15;3.97;;;1.08;;
4021;SDS011;2025;48.260;16.432;2023-05-10T01:39:47;4.45;;;0.90;;
4021;SDS011;2025;48.260;16.432;2023-05-10T01:42:21;5.15;;;1.90;;
4021;SDS011;2025;48.260;16.432;2023-05-10T01:44:53;4.07;;;0.98;;
4021;SDS011;2025;48.260;16.432;2023-05-10T01:47:27;4.38;;;1.10;;
4021;SDS011;2025;48.260;16.432;2023-05-10T01:50:10;5.55;;;1.77;;
4021;SDS011;2025;48.260;16.432;2023-05-10T01:52:41;4.70;;;1.17;;
4021;SDS011;2025;48.260;16.432;2023-05-10T01:55:11;5.10;;;1.02;;
4021;SDS011;2025;48.260;16.432;2023-05-10T01:57:42;6.00;;;1.63;;
4021;SDS011;2025;48.260;16.432;2023-05-10T02:00:11;4.45;;;1.15;;
4021;SDS011;2025;48.260;16.432;2023-05-10T02:02:42;5.40;;;1.70;;
4021;SDS011;2025;48.260;16.432;2023-05-10T02:05:12;6.43;;;1.50;;
4021;SDS011;2025;48.260;16.432;2023-05-10T02:07:40;5.22;;;1.20;;
4021;SDS011;2025;48.260;16.432;2023-05-10T02:10:09;4.68;;;1.52;;
4021;SDS011;2025;48.260;16.432;2023-05-10T02:12:39;5.38;;;1.50;;
4021;SDS011;2025;48.260;16.432;2023-05-10T02:15:08;5.88;;;1.50;;
4021;SDS011;2025;48.260;16.432;2023-05-10T02:17:38;6.18;;;2.72;;
4021;SDS011;2025;48.260;16.432;2023-05-10T02:20:08;5.82;;;1.40;;
4021;SDS011;2025;48.260;16.432;2023-05-10T02:22:37;7.13;;;2.20;;
4021;SDS011;2025;48.260;16.432;2023-05-10T02:25:06;5.65;;;1.73;;
4021;SDS011;2025;48.260;16.432;2023-05-10T02:27:35;5.75;;;2.40;;
4021;SDS011;2025;48.260;16.432;2023-05-10T02:30:04;7.57;;;3.00;;
4021;SDS011;2025;48.260;16.432;2023-05-10T02:32:33;6.88;;;1.73;;
4021;SDS011;2025;48.260;16.432;2023-05-10T02:35:03;5.55;;;1.55;;
4021;SDS011;2025;48.260;16.432;2023-05-10T02:37:31;8.13;;;1.60;;
4021;SDS011;2025;48.260;16.432;2023-05-10T02:39:59;4.70;;;1.50;;
4021;SDS011;2025;48.260;16.432;2023-05-10T02:42:29;6.38;;;2.92;;
4021;SDS011;2025;48.260;16.432;2023-05-10T02:44:59;5.90;;;1.80;;
4021;SDS011;2025;48.260;16.432;2023-05-10T02:47:27;6.35;;;1.88;;
4021;SDS011;2025;48.260;16.432;2023-05-10T02:49:55;7.65;;;3.45;;
4021;SDS011;2025;48.260;16.432;2023-05-10T02:52:24;4.93;;;1.70;;
4021;SDS011;2025;48.260;16.432;2023-05-10T02:54:54;5.75;;;2.08;;
4021;SDS011;2025;48.260;16.432;2023-05-10T02:57:28;5.95;;;1.85;;
4021;SDS011;2025;48.260;16.432;2023-05-10T02:59:58;8.20;;;1.95;;
4021;SDS011;2025;48.260;16.432;2023-05-10T03:02:26;7.43;;;2.78;;
4021;SDS011;2025;48.260;16.432;2023-05-10T03:04:55;5.63;;;2.40;;
4021;SDS011;2025;48.260;16.432;2023-05-10T03:07:23;5.75;;;1.88;;
4021;SDS011;2025;48.260;16.432;2023-05-10T03:09:51;5.75;;;1.85;;
4021;SDS011;2025;48.260;16.432;2023-05-10T03:12:21;5.65;;;2.28;;
4021;SDS011;2025;48.260;16.432;2023-05-10T03:14:56;6.95;;;3.25;;
4021;SDS011;2025;48.260;16.432;2023-05-10T03:17:30;8.75;;;2.30;;
4021;SDS011;2025;48.260;16.432;2023-05-10T03:20:03;5.13;;;1.70;;
4021;SDS011;2025;48.260;16.432;2023-05-10T03:22:36;7.15;;;2.33;;
4021;SDS011;2025;48.260;16.432;2023-05-10T03:25:05;5.88;;;1.80;;
4021;SDS011;2025;48.260;16.432;2023-05-10T03:27:35;8.20;;;2.25;;
4021;SDS011;2025;48.260;16.432;2023-05-10T03:30:05;6.63;;;2.28;;
4021;SDS011;2025;48.260;16.432;2023-05-10T03:32:34;6.32;;;2.03;;
4021;SDS011;2025;48.260;16.432;2023-05-10T03:35:05;6.28;;;2.35;;
4021;SDS011;2025;48.260;16.432;2023-05-10T03:37:35;5.93;;;2.35;;
4021;SDS011;2025;48.260;16.432;2023-05-10T03:40:02;6.43;;;2.08;;
4021;SDS011;2025;48.260;16.432;2023-05-10T03:42:30;7.45;;;2.88;;
4021;SDS011;2025;48.260;16.432;2023-05-10T03:44:57;5.72;;;1.80;;
4021;SDS011;2025;48.260;16.432;2023-05-10T03:47:24;6.57;;;2.80;;
4021;SDS011;2025;48.260;16.432;2023-05-10T03:49:51;8.13;;;5.55;;
4021;SDS011;2025;48.260;16.432;2023-05-10T03:52:18;6.32;;;2.42;;
4021;SDS011;2025;48.260;16.432;2023-05-10T03:54:46;7.95;;;2.45;;
4021;SDS011;2025;48.260;16.432;2023-05-10T03:57:13;8.40;;;2.90;;
4021;SDS011;2025;48.260;16.432;2023-05-10T03:59:40;8.00;;;2.08;;
4021;SDS011;2025;48.260;16.432;2023-05-10T04:02:07;8.02;;;2.72;;
4021;SDS011;2025;48.260;16.432;2023-05-10T04:04:34;6.40;;;2.50;;
4021;SDS011;2025;48.260;16.432;2023-05-10T04:07:01;6.80;;;2.35;;
4021;SDS011;2025;48.260;16.432;2023-05-10T04:09:29;6.45;;;2.30;;
4021;SDS011;2025;48.260;16.432;2023-05-10T04:11:57;6.57;;;2.47;;
4021;SDS011;2025;48.260;16.432;2023-05-10T04:14:25;6.35;;;2.42;;
4021;SDS011;2025;48.260;16.432;2023-05-10T04:16:52;7.43;;;2.63;;
4021;SDS011;2025;48.260;16.432;2023-05-10T04:19:19;6.68;;;2.40;;
4021;SDS011;2025;48.260;16.432;2023-05-10T04:21:46;7.40;;;2.60;;
4021;SDS011;2025;48.260;16.432;2023-05-10T04:24:12;7.75;;;2.75;;
4021;SDS011;2025;48.260;16.432;2023-05-10T04:26:40;7.90;;;2.75;;
4021;SDS011;2025;48.260;16.432;2023-05-10T04:29:08;6.93;;;2.67;;
4021;SDS011;2025;48.260;16.432;2023-05-10T04:31:35;7.45;;;2.70;;
4021;SDS011;2025;48.260;16.432;2023-05-10T04:34:02;7.03;;;2.30;;
4021;SDS011;2025;48.260;16.432;2023-05-10T04:36:29;7.20;;;2.60;;
4021;SDS011;2025;48.260;16.432;2023-05-10T04:38:57;8.52;;;2.47;;
4021;SDS011;2025;48.260;16.432;2023-05-10T04:41:24;5.80;;;1.90;;
4021;SDS011;2025;48.260;16.432;2023-05-10T04:43:51;7.55;;;2.92;;
4021;SDS011;2025;48.260;16.432;2023-05-10T04:46:20;7.95;;;4.93;;
4021;SDS011;2025;48.260;16.432;2023-05-10T04:48:46;7.10;;;3.03;;
4021;SDS011;2025;48.260;16.432;2023-05-10T04:51:14;6.90;;;2.55;;
4021;SDS011;2025;48.260;16.432;2023-05-10T04:53:41;7.45;;;2.42;;
4021;SDS011;2025;48.260;16.432;2023-05-10T04:56:07;7.10;;;2.75;;
4021;SDS011;2025;48.260;16.432;2023-05-10T04:58:34;7.47;;;1.98;;
4021;SDS011;2025;48.260;16.432;2023-05-10T05:01:05;7.63;;;2.50;;
4021;SDS011;2025;48.260;16.432;2023-05-10T05:03:34;6.57;;;1.90;;
4021;SDS011;2025;48.260;16.432;2023-05-10T05:06:01;6.18;;;2.10;;
4021;SDS011;2025;48.260;16.432;2023-05-10T05:08:29;7.07;;;2.20;;
4021;SDS011;2025;48.260;16.432;2023-05-10T05:10:55;7.43;;;2.38;;
4021;SDS011;2025;48.260;16.432;2023-05-10T05:13:22;7.18;;;2.90;;
4021;SDS011;2025;48.260;16.432;2023-05-10T05:15:49;6.50;;;2.38;;
4021;SDS011;2025;48.260;16.432;2023-05-10T05:18:16;8.52;;;2.42;;
4021;SDS011;2025;48.260;16.432;2023-05-10T05:20:45;8.15;;;2.20;;
4021;SDS011;2025;48.260;16.432;2023-05-10T05:23:12;6.55;;;2.30;;
4021;SDS011;2025;48.260;16.432;2023-05-10T05:25:39;6.45;;;1.90;;
4021;SDS011;2025;48.260;16.432;2023-05-10T05:28:05;7.32;;;3.90;;
4021;SDS011;2025;48.260;16.432;2023-05-10T05:30:32;6.57;;;3.20;;
4021;SDS011;2025;48.260;16.432;2023-05-10T05:32:59;8.55;;;2.80;;
4021;SDS011;2025;48.260;16.432;2023-05-10T05:35:27;8.73;;;2.65;;
4021;SDS011;2025;48.260;16.432;2023-05-10T05:37:55;8.13;;;2.75;;
4021;SDS011;2025;48.260;16.432;2023-05-10T05:40:22;9.70;;;3.03;;
4021;SDS011;2025;48.260;16.432;2023-05-10T05:42:49;9.18;;;2.72;;
4021;SDS011;2025;48.260;16.432;2023-05-10T05:45:16;8.73;;;2.70;;
4021;SDS011;2025;48.260;16.432;2023-05-10T05:47:43;9.68;;;2.97;;
4021;SDS011;2025;48.260;16.432;2023-05-10T05:50:10;9.10;;;3.10;;
4021;SDS011;2025;48.260;16.432;2023-05-10T05:52:37;7.35;;;2.60;;
4021;SDS011;2025;48.260;16.432;2023-05-10T05:55:06;8.32;;;2.90;;
4021;SDS011;2025;48.260;16.432;2023-05-10T05:57:33;8.23;;;2.83;;
4021;SDS011;2025;48.260;16.432;2023-05-10T06:00:00;10.77;;;2.97;;
4021;SDS011;2025;48.260;16.432;2023-05-10T06:02:28;11.45;;;4.18;;
4021;SDS011;2025;48.260;16.432;2023-05-10T06:04:55;8.43;;;2.60;;
4021;SDS011;2025;48.260;16.432;2023-05-10T06:07:22;6.60;;;2.22;;
4021;SDS011;2025;48.260;16.432;2023-05-10T06:09:49;6.53;;;2.45;;
4021;SDS011;2025;48.260;16.432;2023-05-10T06:12:17;9.30;;;2.63;;
4021;SDS011;2025;48.260;16.432;2023-05-10T06:14:44;8.27;;;3.47;;
4021;SDS011;2025;48.260;16.432;2023-05-10T06:17:11;7.63;;;2.60;;
4021;SDS011;2025;48.260;16.432;2023-05-10T06:19:38;7.15;;;2.65;;
4021;SDS011;2025;48.260;16.432;2023-05-10T06:22:05;7.50;;;2.85;;
4021;SDS011;2025;48.260;16.432;2023-05-10T06:24:31;7.82;;;2.95;;
4021;SDS011;2025;48.260;16.432;2023-05-10T06:26:58;7.68;;;2.92;;
4021;SDS011;2025;48.260;16.432;2023-05-10T06:29:27;10.13;;;4.72;;
4021;SDS011;2025;48.260;16.432;2023-05-10T06:31:54;7.32;;;2.03;;
4021;SDS011;2025;48.260;16.432;2023-05-10T06:34:21;8.20;;;2.97;;
4021;SDS011;2025;48.260;16.432;2023-05-10T06:36:48;7.78;;;2.45;;
4021;SDS011;2025;48.260;16.432;2023-05-10T06:39:15;7.00;;;2.53;;
4021;SDS011;2025;48.260;16.432;2023-05-10T06:41:42;8.02;;;3.30;;
4021;SDS011;2025;48.260;16.432;2023-05-10T06:44:09;7.13;;;2.53;;
4021;SDS011;2025;48.260;16.432;2023-05-10T06:46:37;7.10;;;1.92;;
4021;SDS011;2025;48.260;16.432;2023-05-10T06:49:04;7.13;;;3.55;;
4021;SDS011;2025;48.260;16.432;2023-05-10T06:51:31;7.18;;;2.65;;
4021;SDS011;2025;48.260;16.432;2023-05-10T06:53:58;7.13;;;1.90;;
4021;SDS011;2025;48.260;16.432;2023-05-10T06:56:25;8.85;;;4.18;;
4021;SDS011;2025;48.260;16.432;2023-05-10T06:58:52;7.13;;;2.22;;
4021;SDS011;2025;48.260;16.432;2023-05-10T07:01:19;9.57;;;2.78;;
4021;SDS011;2025;48.260;16.432;2023-05-10T07:03:47;8.80;;;2.75;;
4021;SDS011;2025;48.260;16.432;2023-05-10T07:06:14;6.80;;;2.63;;
4021;SDS011;2025;48.260;16.432;2023-05-10T07:08:41;9.70;;;2.42;;
4021;SDS011;2025;48.260;16.432;2023-05-10T07:11:08;8.43;;;2.80;;
4021;SDS011;2025;48.260;16.432;2023-05-10T07:13:35;7.70;;;2.67;;
4021;SDS011;2025;48.260;16.432;2023-05-10T07:16:04;6.43;;;2.58;;
4021;SDS011;2025;48.260;16.432;2023-05-10T07:18:31;7.05;;;2.53;;
4021;SDS011;2025;48.260;16.432;2023-05-10T07:21:00;6.55;;;2.17;;
4021;SDS011;2025;48.260;16.432;2023-05-10T07:23:27;8.48;;;2.78;;
4021;SDS011;2025;48.260;16.432;2023-05-10T07:25:54;6.47;;;2.83;;
4021;SDS011;2025;48.260;16.432;2023-05-10T07:28:22;7.15;;;4.30;;
4021;SDS011;2025;48.260;16.432;2023-05-10T07:30:50;7.32;;;2.53;;
4021;SDS011;2025;48.260;16.432;2023-05-10T07:33:17;8.50;;;2.67;;
4021;SDS011;2025;48.260;16.432;2023-05-10T07:35:44;6.40;;;3.25;;
4021;SDS011;2025;48.260;16.432;2023-05-10T07:38:13;7.65;;;3.05;;
4021;SDS011;2025;48.260;16.432;2023-05-10T07:40:40;9.40;;;4.43;;
4021;SDS011;2025;48.260;16.432;2023-05-10T07:43:06;6.90;;;2.60;;
4021;SDS011;2025;48.260;16.432;2023-05-10T07:45:33;6.43;;;2.80;;
4021;SDS011;2025;48.260;16.432;2023-05-10T07:48:00;8.80;;;3.20;;
4021;SDS011;2025;48.260;16.432;2023-05-10T07:50:27;7.85;;;3.17;;
4021;SDS011;2025;48.260;16.432;2023-05-10T07:52:54;10.20;;;3.05;;
4021;SDS011;2025;48.260;16.432;2023-05-10T07:55:23;8.20;;;2.90;;
4021;SDS011;2025;48.260;16.432;2023-05-10T07:57:50;7.28;;;3.03;;
4021;SDS011;2025;48.260;16.432;2023-05-10T08:00:17;10.02;;;4.20;;
4021;SDS011;2025;48.260;16.432;2023-05-10T08:02:45;10.43;;;2.92;;
4021;SDS011;2025;48.260;16.432;2023-05-10T08:05:12;7.32;;;2.55;;
4021;SDS011;2025;48.260;16.432;2023-05-10T08:07:40;7.68;;;3.80;;
4021;SDS011;2025;48.260;16.432;2023-05-10T08:10:08;6.00;;;2.22;;
4021;SDS011;2025;48.260;16.432;2023-05-10T08:12:38;7.03;;;4.22;;
4021;SDS011;2025;48.260;16.432;2023-05-10T08:15:06;6.50;;;2.08;;
4021;SDS011;2025;48.260;16.432;2023-05-10T08:17:33;6.45;;;1.80;;
4021;SDS011;2025;48.260;16.432;2023-05-10T08:20:00;9.55;;;2.00;;
4021;SDS011;2025;48.260;16.432;2023-05-10T08:22:27;5.32;;;1.88;;
4021;SDS011;2025;48.260;16.432;2023-05-10T08:24:54;6.57;;;1.95;;
4021;SDS011;2025;48.260;16.432;2023-05-10T08:27:21;6.47;;;1.90;;
4021;SDS011;2025;48.260;16.432;2023-05-10T08:29:50;6.30;;;3.05;;
4021;SDS011;2025;48.260;16.432;2023-05-10T08:32:17;5.80;;;1.27;;
4021;SDS011;2025;48.260;16.432;2023-05-10T08:34:44;5.32;;;1.27;;
4021;SDS011;2025;48.260;16.432;2023-05-10T08:37:11;5.65;;;2.83;;
4021;SDS011;2025;48.260;16.432;2023-05-10T08:39:38;5.65;;;1.55;;
4021;SDS011;2025;48.260;16.432;2023-05-10T08:42:05;4.82;;;2.78;;
4021;SDS011;2025;48.260;16.432;2023-05-10T08:44:34;5.00;;;1.20;;
4021;SDS011;2025;48.260;16.432;2023-05-10T08:47:04;5.40;;;1.30;;
4021;SDS011;2025;48.260;16.432;2023-05-10T08:49:32;5.05;;;1.58;;
4021;SDS011;2025;48.260;16.432;2023-05-10T08:52:02;6.43;;;1.63;;
4021;SDS011;2025;48.260;16.432;2023-05-10T08:54:31;5.18;;;1.35;;
4021;SDS011;2025;48.260;16.432;2023-05-10T08:56:59;6.50;;;1.70;;
4021;SDS011;2025;48.260;16.432;2023-05-10T08:59:27;4.95;;;1.55;;
4021;SDS011;2025;48.260;16.432;2023-05-10T09:01:55;4.85;;;1.35;;
4021;SDS011;2025;48.260;16.432;2023-05-10T09:04:26;5.25;;;2.28;;
4021;SDS011;2025;48.260;16.432;2023-05-10T09:06:54;4.93;;;1.30;;
4021;SDS011;2025;48.260;16.432;2023-05-10T09:09:21;4.22;;;0.90;;
4021;SDS011;2025;48.260;16.432;2023-05-10T09:11:48;4.65;;;1.13;;
4021;SDS011;2025;48.260;16.432;2023-05-10T09:14:15;6.60;;;0.90;;
4021;SDS011;2025;48.260;16.432;2023-05-10T09:16:43;6.82;;;1.02;;
4021;SDS011;2025;48.260;16.432;2023-05-10T09:19:10;3.30;;;0.63;;
4021;SDS011;2025;48.260;16.432;2023-05-10T09:21:38;3.90;;;0.80;;
4021;SDS011;2025;48.260;16.432;2023-05-10T09:24:06;6.43;;;1.02;;
4021;SDS011;2025;48.260;16.432;2023-05-10T09:26:34;4.63;;;0.98;;
4021;SDS011;2025;48.260;16.432;2023-05-10T09:29:02;3.47;;;0.70;;
4021;SDS011;2025;48.260;16.432;2023-05-10T09:31:46;4.18;;;0.80;;
4021;SDS011;2025;48.260;16.432;2023-05-10T09:34:16;4.45;;;0.65;;
4021;SDS011;2025;48.260;16.432;2023-05-10T09:36:53;3.13;;;0.50;;
4021;SDS011;2025;48.260;16.432;2023-05-10T09:39:21;5.30;;;0.95;;
4021;SDS011;2025;48.260;16.432;2023-05-10T09:41:57;4.13;;;0.73;;
4021;SDS011;2025;48.260;16.432;2023-05-10T09:44:25;3.53;;;0.93;;
4021;SDS011;2025;48.260;16.432;2023-05-10T09:46:52;5.53;;;0.85;;
4021;SDS011;2025;48.260;16.432;2023-05-10T09:49:20;5.00;;;1.27;;
4021;SDS011;2025;48.260;16.432;2023-05-10T09:51:47;4.57;;;0.57;;
4021;SDS011;2025;48.260;16.432;2023-05-10T09:54:25;4.00;;;1.13;;
4021;SDS011;2025;48.260;16.432;2023-05-10T09:56:52;3.60;;;0.50;;
4021;SDS011;2025;48.260;16.432;2023-05-10T09:59:18;6.55;;;0.70;;
4021;SDS011;2025;48.260;16.432;2023-05-10T10:01:49;2.88;;;0.52;;
4021;SDS011;2025;48.260;16.432;2023-05-10T10:04:16;4.00;;;0.60;;
4021;SDS011;2025;48.260;16.432;2023-05-10T10:06:43;2.90;;;0.65;;
4021;SDS011;2025;48.260;16.432;2023-05-10T10:09:10;4.30;;;0.80;;
4021;SDS011;2025;48.260;16.432;2023-05-10T10:11:39;3.30;;;0.70;;
4021;SDS011;2025;48.260;16.432;2023-05-10T10:14:06;4.75;;;0.98;;
4021;SDS011;2025;48.260;16.432;2023-05-10T10:16:33;5.00;;;0.60;;
4021;SDS011;2025;48.260;16.432;2023-05-10T10:19:01;3.95;;;0.57;;
4021;SDS011;2025;48.260;16.432;2023-05-10T10:21:28;3.30;;;0.63;;
4021;SDS011;2025;48.260;16.432;2023-05-10T10:23:56;3.92;;;0.68;;
4021;SDS011;2025;48.260;16.432;2023-05-10T10:26:22;3.40;;;0.95;;
4021;SDS011;2025;48.260;16.432;2023-05-10T10:28:56;3.25;;;0.50;;
4021;SDS011;2025;48.260;16.432;2023-05-10T10:31:34;5.15;;;1.27;;
4021;SDS011;2025;48.260;16.432;2023-05-10T10:34:05;3.38;;;0.77;;
4021;SDS011;2025;48.260;16.432;2023-05-10T10:36:39;3.00;;;0.50;;
4021;SDS011;2025;48.260;16.432;2023-05-10T10:39:08;4.18;;;0.90;;
4021;SDS011;2025;48.260;16.432;2023-05-10T10:41:37;2.88;;;0.50;;
4021;SDS011;2025;48.260;16.432;2023-05-10T10:47:20;4.78;;;0.68;;
4021;SDS011;2025;48.260;16.432;2023-05-10T10:50:04;3.20;;;0.63;;
4021;SDS011;2025;48.260;16.432;2023-05-10T10:52:33;3.50;;;1.88;;
4021;SDS011;2025;48.260;16.432;2023-05-10T10:55:02;3.55;;;0.73;;
4021;SDS011;2025;48.260;16.432;2023-05-10T10:57:32;3.70;;;0.95;;
4021;SDS011;2025;48.260;16.432;2023-05-10T11:00:19;3.30;;;0.80;;
4021;SDS011;2025;48.260;16.432;2023-05-10T11:02:51;3.20;;;0.47;;
4021;SDS011;2025;48.260;16.432;2023-05-10T11:05:33;3.22;;;0.60;;
4021;SDS011;2025;48.260;16.432;2023-05-10T11:08:12;4.55;;;0.70;;
4021;SDS011;2025;48.260;16.432;2023-05-10T11:10:50;2.85;;;0.70;;
4021;SDS011;2025;48.260;16.432;2023-05-10T11:13:26;2.95;;;0.43;;
4021;SDS011;2025;48.260;16.432;2023-05-10T11:15:57;2.92;;;0.70;;
4021;SDS011;2025;48.260;16.432;2023-05-10T11:18:25;3.20;;;0.50;;
4021;SDS011;2025;48.260;16.432;2023-05-10T11:20:56;4.28;;;0.70;;
4021;SDS011;2025;48.260;16.432;2023-05-10T11:23:29;3.95;;;0.40;;
4021;SDS011;2025;48.260;16.432;2023-05-10T11:28:23;2.50;;;0.60;;
4021;SDS011;2025;48.260;16.432;2023-05-10T11:30:50;2.92;;;0.40;;
4021;SDS011;2025;48.260;16.432;2023-05-10T11:33:19;3.63;;;1.67;;
4021;SDS011;2025;48.260;16.432;2023-05-10T11:35:46;2.92;;;0.50;;
4021;SDS011;2025;48.260;16.432;2023-05-10T11:38:13;3.15;;;0.75;;
4021;SDS011;2025;48.260;16.432;2023-05-10T11:40:40;2.95;;;0.70;;
4021;SDS011;2025;48.260;16.432;2023-05-10T11:43:08;4.25;;;1.10;;
4021;SDS011;2025;48.260;16.432;2023-05-10T11:45:42;3.28;;;0.65;;
4021;SDS011;2025;48.260;16.432;2023-05-10T11:48:09;4.13;;;1.50;;
4021;SDS011;2025;48.260;16.432;2023-05-10T11:50:37;3.95;;;1.05;;
4021;SDS011;2025;48.260;16.432;2023-05-10T11:53:05;2.50;;;0.40;;
4021;SDS011;2025;48.260;16.432;2023-05-10T11:55:33;2.80;;;0.50;;
4021;SDS011;2025;48.260;16.432;2023-05-10T11:58:00;2.72;;;0.50;;
4021;SDS011;2025;48.260;16.432;2023-05-10T12:00:28;2.47;;;0.60;;
4021;SDS011;2025;48.260;16.432;2023-05-10T12:02:56;3.47;;;0.57;;
4021;SDS011;2025;48.260;16.432;2023-05-10T12:05:24;5.35;;;0.50;;
4021;SDS011;2025;48.260;16.432;2023-05-10T12:07:52;3.08;;;0.60;;
4021;SDS011;2025;48.260;16.432;2023-05-10T12:10:36;5.45;;;0.40;;
4021;SDS011;2025;48.260;16.432;2023-05-10T12:13:03;2.65;;;0.50;;
4021;SDS011;2025;48.260;16.432;2023-05-10T12:15:30;3.05;;;0.60;;
4021;SDS011;2025;48.260;16.432;2023-05-10T12:17:57;4.18;;;0.70;;
4021;SDS011;2025;48.260;16.432;2023-05-10T12:20:27;2.83;;;0.60;;
4021;SDS011;2025;48.260;16.432;2023-05-10T12:22:56;2.75;;;0.70;;
4021;SDS011;2025;48.260;16.432;2023-05-10T12:25:29;2.85;;;0.45;;
4021;SDS011;2025;48.260;16.432;2023-05-10T12:27:58;3.33;;;0.50;;
4021;SDS011;2025;48.260;16.432;2023-05-10T12:30:26;4.03;;;0.70;;
4021;SDS011;2025;48.260;16.432;2023-05-10T12:32:59;3.53;;;0.50;;
4021;SDS011;2025;48.260;16.432;2023-05-10T12:35:29;4.95;;;0.50;;
4021;SDS011;2025;48.260;16.432;2023-05-10T12:37:58;3.40;;;0.55;;
4021;SDS011;2025;48.260;16.432;2023-05-10T12:40:25;2.47;;;0.30;;
4021;SDS011;2025;48.260;16.432;2023-05-10T12:42:52;3.75;;;0.60;;
4021;SDS011;2025;48.260;16.432;2023-05-10T12:45:19;3.90;;;0.88;;
4021;SDS011;2025;48.260;16.432;2023-05-10T12:47:47;3.17;;;0.50;;
4021;SDS011;2025;48.260;16.432;2023-05-10T12:50:14;3.53;;;1.25;;
4021;SDS011;2025;48.260;16.432;2023-05-10T12:52:40;3.78;;;0.68;;
4021;SDS011;2025;48.260;16.432;2023-05-10T12:55:09;3.08;;;0.60;;
4021;SDS011;2025;48.260;16.432;2023-05-10T12:57:36;3.60;;;0.63;;
4021;SDS011;2025;48.260;16.432;2023-05-10T13:00:05;3.45;;;0.50;;
4021;SDS011;2025;48.260;16.432;2023-05-10T13:02:33;3.65;;;0.70;;
4021;SDS011;2025;48.260;16.432;2023-05-10T13:05:00;3.58;;;1.63;;
4021;SDS011;2025;48.260;16.432;2023-05-10T13:07:27;4.40;;;1.17;;
4021;SDS011;2025;48.260;16.432;2023-05-10T13:09:54;4.85;;;0.95;;
4021;SDS011;2025;48.260;16.432;2023-05-10T13:12:22;3.97;;;1.10;;
4021;SDS011;2025;48.260;16.432;2023-05-10T13:14:49;3.95;;;1.15;;
4021;SDS011;2025;48.260;16.432;2023-05-10T13:17:16;5.15;;;1.02;;
4021;SDS011;2025;48.260;16.432;2023-05-10T13:19:43;4.38;;;0.70;;
4021;SDS011;2025;48.260;16.432;2023-05-10T13:22:10;5.15;;;1.27;;
4021;SDS011;2025;48.260;16.432;2023-05-10T13:24:37;6.90;;;1.20;;
4021;SDS011;2025;48.260;16.432;2023-05-10T13:27:04;3.85;;;1.15;;
4021;SDS011;2025;48.260;16.432;2023-05-10T13:29:33;6.00;;;0.85;;
4021;SDS011;2025;48.260;16.432;2023-05-10T13:32:01;4.03;;;1.38;;
4021;SDS011;2025;48.260;16.432;2023-05-10T13:34:27;3.50;;;0.90;;
4021;SDS011;2025;48.260;16.432;2023-05-10T13:36:54;3.55;;;1.10;;
4021;SDS011;2025;48.260;16.432;2023-05-10T13:39:22;3.88;;;1.35;;
4021;SDS011;2025;48.260;16.432;2023-05-10T13:41:49;4.35;;;2.15;;
4021;SDS011;2025;48.260;16.432;2023-05-10T13:44:17;3.65;;;1.13;;
4021;SDS011;2025;48.260;16.432;2023-05-10T13:46:45;3.55;;;0.82;;
4021;SDS011;2025;48.260;16.432;2023-05-10T13:49:12;3.00;;;0.55;;
4021;SDS011;2025;48.260;16.432;2023-05-10T13:51:39;3.20;;;0.90;;
4021;SDS011;2025;48.260;16.432;2023-05-10T13:54:06;4.03;;;0.60;;
4021;SDS011;2025;48.260;16.432;2023-05-10T13:56:33;4.30;;;0.90;;
4021;SDS011;2025;48.260;16.432;2023-05-10T13:59:00;3.05;;;0.80;;
4021;SDS011;2025;48.260;16.432;2023-05-10T14:01:27;4.47;;;0.90;;
4021;SDS011;2025;48.260;16.432;2023-05-10T14:03:55;3.17;;;1.42;;
4021;SDS011;2025;48.260;16.432;2023-05-10T14:06:22;3.65;;;0.68;;
4021;SDS011;2025;48.260;16.432;2023-05-10T14:08:49;4.53;;;0.50;;
4021;SDS011;2025;48.260;16.432;2023-05-10T14:11:16;3.00;;;0.52;;
4021;SDS011;2025;48.260;16.432;2023-05-10T14:13:43;2.90;;;0.43;;
4021;SDS011;2025;48.260;16.432;2023-05-10T14:16:10;3.65;;;0.65;;
4021;SDS011;2025;48.260;16.432;2023-05-10T14:18:39;3.78;;;0.63;;
4021;SDS011;2025;48.260;16.432;2023-05-10T14:21:08;2.92;;;0.63;;
4021;SDS011;2025;48.260;16.432;2023-05-10T14:23:35;3.85;;;0.65;;
4021;SDS011;2025;48.260;16.432;2023-05-10T14:26:02;2.88;;;0.50;;
4021;SDS011;2025;48.260;16.432;2023-05-10T14:28:29;3.17;;;0.43;;
4021;SDS011;2025;48.260;16.432;2023-05-10T14:30:56;4.05;;;0.50;;
4021;SDS011;2025;48.260;16.432;2023-05-10T14:33:23;4.38;;;0.50;;
4021;SDS011;2025;48.260;16.432;2023-05-10T14:35:50;4.35;;;0.60;;
4021;SDS011;2025;48.260;16.432;2023-05-10T14:38:18;5.85;;;1.05;;
4021;SDS011;2025;48.260;16.432;2023-05-10T14:40:45;3.05;;;0.80;;
4021;SDS011;2025;48.260;16.432;2023-05-10T14:43:12;4.68;;;0.55;;
4021;SDS011;2025;48.260;16.432;2023-05-10T14:45:39;3.92;;;0.68;;
4021;SDS011;2025;48.260;16.432;2023-05-10T14:48:06;2.70;;;0.50;;
4021;SDS011;2025;48.260;16.432;2023-05-10T14:50:37;5.00;;;0.50;;
4021;SDS011;2025;48.260;16.432;2023-05-10T14:53:04;5.60;;;0.50;;
4021;SDS011;2025;48.260;16.432;2023-05-10T14:55:33;2.72;;;0.30;;
4021;SDS011;2025;48.260;16.432;2023-05-10T14:58:00;3.30;;;0.60;;
4021;SDS011;2025;48.260;16.432;2023-05-10T15:00:28;3.50;;;0.40;;
4021;SDS011;2025;48.260;16.432;2023-05-10T15:02:56;3.33;;;0.50;;
4021;SDS011;2025;48.260;16.432;2023-05-10T15:05:23;3.50;;;0.50;;
4021;SDS011;2025;48.260;16.432;2023-05-10T15:07:50;3.58;;;0.77;;
4021;SDS011;2025;48.260;16.432;2023-05-10T15:10:17;2.45;;;0.40;;
4021;SDS011;2025;48.260;16.432;2023-05-10T15:12:46;3.80;;;0.60;;
4021;SDS011;2025;48.260;16.432;2023-05-10T15:15:13;2.97;;;0.60;;